sensor_id;sensor_type;location;lat;lon;timestamp;P1;durP1;ratioP1;P2;durP2;ratioP2
27722;SDS011;15123;-37.794;175.246;2023-01-30T00:00:14;12.52;;;1.70;;
27722;SDS011;15123;-37.794;175.246;2023-01-30T00:02:46;14.38;;;1.80;;
27722;SDS011;15123;-37.794;175.246;2023-01-30T00:05:17;11.88;;;1.80;;
27722;SDS011;15123;-37.794;175.246;2023-01-30T00:07:48;10.30;;;1.48;;
27722;SDS011;15123;-37.794;175.246;2023-01-30T00:10:19;11.63;;;1.50;;
27722;SDS011;15123;-37.794;175.246;2023-01-30T00:12:53;12.50;;;1.73;;
27722;SDS011;15123;-37.794;175.246;2023-01-30T00:15:24;11.00;;;1.67;;
27722;SDS011;15123;-37.794;175.246;2023-01-30T00:17:55;12.80;;;1.80;;
27722;SDS011;15123;-37.794;175.246;2023-01-30T00:20:26;10.50;;;1.58;;
27722;SDS011;15123;-37.794;175.246;2023-01-30T00:22:57;11.02;;;1.55;;
27722;SDS011;15123;-37.794;175.246;2023-01-30T00:25:29;10.95;;;1.65;;
27722;SDS011;15123;-37.794;175.246;2023-01-30T00:28:00;14.30;;;1.70;;
27722;SDS011;15123;-37.794;175.246;2023-01-30T00:30:32;11.55;;;1.42;;
27722;SDS011;15123;-37.794;175.246;2023-01-30T00:33:03;11.95;;;1.70;;
27722;SDS011;15123;-37.794;175.246;2023-01-30T00:35:34;14.07;;;1.60;;
27722;SDS011;15123;-37.794;175.246;2023-01-30T00:38:06;8.52;;;1.48;;
27722;SDS011;15123;-37.794;175.246;2023-01-30T00:40:37;12.02;;;1.60;;
27722;SDS011;15123;-37.794;175.246;2023-01-30T00:43:12;13.75;;;2.13;;
27722;SDS011;15123;-37.794;175.246;2023-01-30T00:46:11;11.60;;;1.75;;
27722;SDS011;15123;-37.794;175.246;2023-01-30T00:49:26;11.77;;;1.67;;
27722;SDS011;15123;-37.794;175.246;2023-01-30T00:51:59;14.55;;;2.35;;
27722;SDS011;15123;-37.794;175.246;2023-01-30T00:57:01;13.00;;;2.60;;
27722;SDS011;15123;-37.794;175.246;2023-01-30T01:02:03;12.05;;;2.00;;
27722;SDS011;15123;-37.794;175.246;2023-01-30T01:04:34;12.50;;;2.30;;
27722;SDS011;15123;-37.794;175.246;2023-01-30T01:07:12;11.73;;;1.92;;
27722;SDS011;15123;-37.794;175.246;2023-01-30T01:09:44;13.65;;;1.80;;
27722;SDS011;15123;-37.794;175.246;2023-01-30T01:12:15;11.77;;;1.70;;
27722;SDS011;15123;-37.794;175.246;2023-01-30T01:14:46;14.88;;;1.83;;
27722;SDS011;15123;-37.794;175.246;2023-01-30T01:17:17;10.20;;;1.60;;
27722;SDS011;15123;-37.794;175.246;2023-01-30T01:19:48;10.38;;;1.70;;
27722;SDS011;15123;-37.794;175.246;2023-01-30T01:22:19;15.18;;;2.00;;
27722;SDS011;15123;-37.794;175.246;2023-01-30T01:24:51;15.98;;;2.28;;
27722;SDS011;15123;-37.794;175.246;2023-01-30T01:29:52;12.40;;;1.65;;
27722;SDS011;15123;-37.794;175.246;2023-01-30T01:32:23;10.65;;;1.70;;
27722;SDS011;15123;-37.794;175.246;2023-01-30T01:34:54;14.35;;;2.20;;
27722;SDS011;15123;-37.794;175.246;2023-01-30T01:37:25;13.30;;;2.17;;
27722;SDS011;15123;-37.794;175.246;2023-01-30T01:39:56;10.50;;;1.42;;
27722;SDS011;15123;-37.794;175.246;2023-01-30T01:42:45;15.20;;;2.00;;
27722;SDS011;15123;-37.794;175.246;2023-01-30T01:45:18;14.55;;;2.33;;
27722;SDS011;15123;-37.794;175.246;2023-01-30T01:48:01;14.02;;;1.75;;
27722;SDS011;15123;-37.794;175.246;2023-01-30T01:51:15;12.53;;;1.93;;
27722;SDS011;15123;-37.794;175.246;2023-01-30T01:54:01;12.35;;;2.10;;
27722;SDS011;15123;-37.794;175.246;2023-01-30T01:56:37;12.75;;;1.70;;
27722;SDS011;15123;-37.794;175.246;2023-01-30T01:59:16;12.50;;;1.98;;
27722;SDS011;15123;-37.794;175.246;2023-01-30T02:01:57;12.55;;;2.10;;
27722;SDS011;15123;-37.794;175.246;2023-01-30T02:04:33;14.52;;;1.88;;
27722;SDS011;15123;-37.794;175.246;2023-01-30T02:07:23;16.63;;;2.63;;
27722;SDS011;15123;-37.794;175.246;2023-01-30T02:09:55;11.60;;;1.73;;
27722;SDS011;15123;-37.794;175.246;2023-01-30T02:12:29;15.55;;;2.13;;
27722;SDS011;15123;-37.794;175.246;2023-01-30T02:15:01;11.70;;;1.83;;
27722;SDS011;15123;-37.794;175.246;2023-01-30T02:17:53;13.98;;;2.13;;
27722;SDS011;15123;-37.794;175.246;2023-01-30T02:26:11;13.75;;;1.92;;
27722;SDS011;15123;-37.794;175.246;2023-01-30T02:29:01;16.40;;;2.25;;
27722;SDS011;15123;-37.794;175.246;2023-01-30T02:31:59;12.73;;;2.10;;
27722;SDS011;15123;-37.794;175.246;2023-01-30T02:38:08;12.95;;;1.80;;
27722;SDS011;15123;-37.794;175.246;2023-01-30T02:40:41;11.82;;;1.75;;
27722;SDS011;15123;-37.794;175.246;2023-01-30T02:52:06;14.50;;;1.88;;
27722;SDS011;15123;-37.794;175.246;2023-01-30T02:54:38;12.05;;;1.70;;
27722;SDS011;15123;-37.794;175.246;2023-01-30T02:57:22;10.88;;;1.70;;
27722;SDS011;15123;-37.794;175.246;2023-01-30T02:59:59;11.95;;;1.80;;
27722;SDS011;15123;-37.794;175.246;2023-01-30T03:02:52;12.30;;;1.80;;
27722;SDS011;15123;-37.794;175.246;2023-01-30T03:05:59;11.25;;;1.70;;
27722;SDS011;15123;-37.794;175.246;2023-01-30T03:09:42;13.00;;;1.52;;
27722;SDS011;15123;-37.794;175.246;2023-01-30T03:12:37;11.43;;;1.67;;
27722;SDS011;15123;-37.794;175.246;2023-01-30T03:15:28;11.32;;;1.50;;
27722;SDS011;15123;-37.794;175.246;2023-01-30T03:18:01;13.50;;;1.60;;
27722;SDS011;15123;-37.794;175.246;2023-01-30T03:20:37;10.93;;;1.67;;
27722;SDS011;15123;-37.794;175.246;2023-01-30T03:23:09;10.00;;;1.83;;
27722;SDS011;15123;-37.794;175.246;2023-01-30T03:28:12;10.63;;;1.60;;
27722;SDS011;15123;-37.794;175.246;2023-01-30T03:30:46;13.38;;;1.80;;
27722;SDS011;15123;-37.794;175.246;2023-01-30T03:33:17;16.98;;;2.67;;
27722;SDS011;15123;-37.794;175.246;2023-01-30T03:35:49;12.13;;;1.67;;
27722;SDS011;15123;-37.794;175.246;2023-01-30T03:38:20;10.82;;;1.60;;
27722;SDS011;15123;-37.794;175.246;2023-01-30T03:40:51;10.65;;;1.55;;
27722;SDS011;15123;-37.794;175.246;2023-01-30T03:43:22;12.82;;;1.75;;
27722;SDS011;15123;-37.794;175.246;2023-01-30T03:45:54;14.02;;;1.70;;
27722;SDS011;15123;-37.794;175.246;2023-01-30T03:48:25;12.05;;;1.83;;
27722;SDS011;15123;-37.794;175.246;2023-01-30T03:50:57;13.93;;;1.75;;
27722;SDS011;15123;-37.794;175.246;2023-01-30T03:53:29;10.60;;;1.52;;
27722;SDS011;15123;-37.794;175.246;2023-01-30T03:56:00;13.73;;;1.80;;
27722;SDS011;15123;-37.794;175.246;2023-01-30T03:58:33;11.55;;;1.50;;
27722;SDS011;15123;-37.794;175.246;2023-01-30T04:01:16;11.95;;;1.98;;
27722;SDS011;15123;-37.794;175.246;2023-01-30T04:03:47;13.68;;;1.90;;
27722;SDS011;15123;-37.794;175.246;2023-01-30T04:06:19;12.00;;;1.60;;
27722;SDS011;15123;-37.794;175.246;2023-01-30T04:08:53;15.25;;;2.03;;
27722;SDS011;15123;-37.794;175.246;2023-01-30T04:11:50;13.35;;;2.13;;
27722;SDS011;15123;-37.794;175.246;2023-01-30T04:14:22;10.90;;;1.60;;
27722;SDS011;15123;-37.794;175.246;2023-01-30T04:17:22;13.85;;;1.80;;
27722;SDS011;15123;-37.794;175.246;2023-01-30T04:20:11;14.40;;;1.70;;
27722;SDS011;15123;-37.794;175.246;2023-01-30T04:22:48;13.88;;;2.17;;
27722;SDS011;15123;-37.794;175.246;2023-01-30T04:25:19;11.73;;;1.60;;
27722;SDS011;15123;-37.794;175.246;2023-01-30T04:27:52;14.05;;;2.38;;
27722;SDS011;15123;-37.794;175.246;2023-01-30T04:30:27;11.10;;;1.70;;
27722;SDS011;15123;-37.794;175.246;2023-01-30T04:33:19;13.77;;;1.95;;
27722;SDS011;15123;-37.794;175.246;2023-01-30T04:35:53;13.43;;;2.03;;
27722;SDS011;15123;-37.794;175.246;2023-01-30T04:38:26;13.70;;;1.90;;
27722;SDS011;15123;-37.794;175.246;2023-01-30T04:40:58;13.38;;;1.63;;
27722;SDS011;15123;-37.794;175.246;2023-01-30T04:43:32;12.52;;;1.90;;
27722;SDS011;15123;-37.794;175.246;2023-01-30T04:46:13;13.95;;;1.80;;
27722;SDS011;15123;-37.794;175.246;2023-01-30T04:48:46;14.90;;;2.28;;
27722;SDS011;15123;-37.794;175.246;2023-01-30T04:51:17;12.60;;;1.73;;
27722;SDS011;15123;-37.794;175.246;2023-01-30T04:53:48;13.93;;;1.98;;
27722;SDS011;15123;-37.794;175.246;2023-01-30T04:56:19;14.07;;;1.80;;
27722;SDS011;15123;-37.794;175.246;2023-01-30T04:58:50;12.13;;;1.60;;
27722;SDS011;15123;-37.794;175.246;2023-01-30T05:01:30;13.07;;;2.15;;
27722;SDS011;15123;-37.794;175.246;2023-01-30T05:04:21;12.43;;;1.90;;
27722;SDS011;15123;-37.794;175.246;2023-01-30T05:06:52;11.02;;;1.55;;
27722;SDS011;15123;-37.794;175.246;2023-01-30T05:09:26;10.45;;;1.80;;
27722;SDS011;15123;-37.794;175.246;2023-01-30T05:14:28;11.18;;;1.55;;
27722;SDS011;15123;-37.794;175.246;2023-01-30T05:19:30;10.75;;;1.85;;
27722;SDS011;15123;-37.794;175.246;2023-01-30T05:22:01;12.68;;;1.90;;
27722;SDS011;15123;-37.794;175.246;2023-01-30T05:24:32;9.80;;;1.60;;
27722;SDS011;15123;-37.794;175.246;2023-01-30T05:27:03;10.20;;;1.55;;
27722;SDS011;15123;-37.794;175.246;2023-01-30T05:29:34;11.10;;;1.70;;
27722;SDS011;15123;-37.794;175.246;2023-01-30T05:32:05;12.82;;;1.80;;
27722;SDS011;15123;-37.794;175.246;2023-01-30T05:34:37;12.73;;;1.58;;
27722;SDS011;15123;-37.794;175.246;2023-01-30T05:37:08;9.18;;;1.50;;
27722;SDS011;15123;-37.794;175.246;2023-01-30T05:39:40;11.63;;;1.88;;
27722;SDS011;15123;-37.794;175.246;2023-01-30T05:42:11;14.85;;;2.03;;
27722;SDS011;15123;-37.794;175.246;2023-01-30T05:44:44;12.32;;;1.90;;
27722;SDS011;15123;-37.794;175.246;2023-01-30T05:47:15;10.88;;;1.65;;
27722;SDS011;15123;-37.794;175.246;2023-01-30T05:49:47;10.80;;;1.80;;
27722;SDS011;15123;-37.794;175.246;2023-01-30T05:52:18;14.48;;;2.15;;
27722;SDS011;15123;-37.794;175.246;2023-01-30T05:54:49;14.70;;;1.98;;
27722;SDS011;15123;-37.794;175.246;2023-01-30T05:57:20;15.55;;;2.25;;
27722;SDS011;15123;-37.794;175.246;2023-01-30T05:59:51;12.40;;;1.98;;
27722;SDS011;15123;-37.794;175.246;2023-01-30T06:02:23;12.20;;;1.90;;
27722;SDS011;15123;-37.794;175.246;2023-01-30T06:04:54;12.95;;;1.85;;
27722;SDS011;15123;-37.794;175.246;2023-01-30T06:07:25;12.57;;;1.75;;
27722;SDS011;15123;-37.794;175.246;2023-01-30T06:09:56;14.05;;;1.83;;
27722;SDS011;15123;-37.794;175.246;2023-01-30T06:12:29;11.98;;;1.80;;
27722;SDS011;15123;-37.794;175.246;2023-01-30T06:15:00;16.52;;;2.40;;
27722;SDS011;15123;-37.794;175.246;2023-01-30T06:17:31;16.05;;;1.90;;
27722;SDS011;15123;-37.794;175.246;2023-01-30T06:20:02;16.27;;;2.20;;
27722;SDS011;15123;-37.794;175.246;2023-01-30T06:25:04;15.77;;;2.10;;
27722;SDS011;15123;-37.794;175.246;2023-01-30T06:27:35;12.38;;;1.85;;
27722;SDS011;15123;-37.794;175.246;2023-01-30T06:30:07;15.30;;;2.90;;
27722;SDS011;15123;-37.794;175.246;2023-01-30T06:32:39;15.38;;;2.28;;
27722;SDS011;15123;-37.794;175.246;2023-01-30T06:35:11;15.88;;;2.40;;
27722;SDS011;15123;-37.794;175.246;2023-01-30T06:37:44;16.02;;;2.05;;
27722;SDS011;15123;-37.794;175.246;2023-01-30T06:40:15;13.18;;;1.90;;
27722;SDS011;15123;-37.794;175.246;2023-01-30T06:42:47;15.48;;;2.35;;
27722;SDS011;15123;-37.794;175.246;2023-01-30T06:47:49;14.20;;;2.03;;
27722;SDS011;15123;-37.794;175.246;2023-01-30T06:50:24;15.27;;;2.38;;
27722;SDS011;15123;-37.794;175.246;2023-01-30T06:52:56;13.15;;;2.10;;
27722;SDS011;15123;-37.794;175.246;2023-01-30T06:55:28;12.70;;;1.85;;
27722;SDS011;15123;-37.794;175.246;2023-01-30T07:00:38;14.48;;;2.38;;
27722;SDS011;15123;-37.794;175.246;2023-01-30T07:03:14;14.32;;;2.60;;
27722;SDS011;15123;-37.794;175.246;2023-01-30T07:05:46;13.55;;;2.45;;
27722;SDS011;15123;-37.794;175.246;2023-01-30T07:08:18;14.95;;;2.03;;
27722;SDS011;15123;-37.794;175.246;2023-01-30T07:10:51;16.80;;;2.33;;
27722;SDS011;15123;-37.794;175.246;2023-01-30T07:15:53;18.30;;;2.47;;
27722;SDS011;15123;-37.794;175.246;2023-01-30T07:18:25;15.20;;;2.42;;
27722;SDS011;15123;-37.794;175.246;2023-01-30T07:20:56;14.27;;;2.30;;
27722;SDS011;15123;-37.794;175.246;2023-01-30T07:23:27;15.55;;;2.17;;
27722;SDS011;15123;-37.794;175.246;2023-01-30T07:28:32;14.50;;;2.08;;
27722;SDS011;15123;-37.794;175.246;2023-01-30T07:31:04;14.27;;;2.20;;
27722;SDS011;15123;-37.794;175.246;2023-01-30T07:33:36;16.63;;;2.20;;
27722;SDS011;15123;-37.794;175.246;2023-01-30T07:36:08;13.77;;;2.10;;
27722;SDS011;15123;-37.794;175.246;2023-01-30T07:38:43;15.15;;;2.00;;
27722;SDS011;15123;-37.794;175.246;2023-01-30T07:41:17;12.63;;;2.15;;
27722;SDS011;15123;-37.794;175.246;2023-01-30T07:43:48;18.02;;;2.47;;
27722;SDS011;15123;-37.794;175.246;2023-01-30T07:46:20;16.02;;;2.30;;
27722;SDS011;15123;-37.794;175.246;2023-01-30T07:48:51;13.90;;;2.50;;
27722;SDS011;15123;-37.794;175.246;2023-01-30T07:51:27;16.02;;;2.60;;
27722;SDS011;15123;-37.794;175.246;2023-01-30T07:54:00;15.48;;;2.38;;
27722;SDS011;15123;-37.794;175.246;2023-01-30T07:56:35;19.17;;;2.65;;
27722;SDS011;15123;-37.794;175.246;2023-01-30T07:59:09;15.48;;;2.55;;
27722;SDS011;15123;-37.794;175.246;2023-01-30T08:01:41;15.95;;;2.53;;
27722;SDS011;15123;-37.794;175.246;2023-01-30T08:04:12;16.38;;;2.50;;
27722;SDS011;15123;-37.794;175.246;2023-01-30T08:06:43;17.33;;;2.92;;
27722;SDS011;15123;-37.794;175.246;2023-01-30T08:09:15;21.67;;;3.17;;
27722;SDS011;15123;-37.794;175.246;2023-01-30T08:11:46;17.45;;;2.45;;
27722;SDS011;15123;-37.794;175.246;2023-01-30T08:14:17;17.15;;;3.20;;
27722;SDS011;15123;-37.794;175.246;2023-01-30T08:16:48;17.08;;;2.50;;
27722;SDS011;15123;-37.794;175.246;2023-01-30T08:19:21;18.20;;;2.45;;
27722;SDS011;15123;-37.794;175.246;2023-01-30T08:21:52;19.23;;;2.85;;
27722;SDS011;15123;-37.794;175.246;2023-01-30T08:24:23;19.55;;;2.78;;
27722;SDS011;15123;-37.794;175.246;2023-01-30T08:26:54;18.42;;;2.63;;
27722;SDS011;15123;-37.794;175.246;2023-01-30T08:29:25;17.88;;;2.50;;
27722;SDS011;15123;-37.794;175.246;2023-01-30T08:31:58;17.40;;;2.50;;
27722;SDS011;15123;-37.794;175.246;2023-01-30T08:34:29;20.33;;;2.80;;
27722;SDS011;15123;-37.794;175.246;2023-01-30T08:37:01;17.63;;;3.33;;
27722;SDS011;15123;-37.794;175.246;2023-01-30T08:39:32;18.48;;;2.60;;
27722;SDS011;15123;-37.794;175.246;2023-01-30T08:42:04;16.73;;;3.92;;
27722;SDS011;15123;-37.794;175.246;2023-01-30T08:44:35;11.95;;;2.10;;
27722;SDS011;15123;-37.794;175.246;2023-01-30T08:47:06;11.55;;;1.77;;
27722;SDS011;15123;-37.794;175.246;2023-01-30T08:49:37;15.00;;;2.10;;
27722;SDS011;15123;-37.794;175.246;2023-01-30T08:52:09;13.07;;;2.00;;
27722;SDS011;15123;-37.794;175.246;2023-01-30T08:54:40;10.35;;;1.58;;
27722;SDS011;15123;-37.794;175.246;2023-01-30T08:57:15;11.18;;;1.50;;
27722;SDS011;15123;-37.794;175.246;2023-01-30T08:59:47;8.95;;;1.50;;
27722;SDS011;15123;-37.794;175.246;2023-01-30T09:02:20;9.10;;;1.45;;
27722;SDS011;15123;-37.794;175.246;2023-01-30T09:04:53;6.80;;;1.30;;
27722;SDS011;15123;-37.794;175.246;2023-01-30T09:07:24;8.88;;;1.38;;
27722;SDS011;15123;-37.794;175.246;2023-01-30T09:09:57;11.73;;;2.00;;
27722;SDS011;15123;-37.794;175.246;2023-01-30T09:12:29;11.32;;;1.40;;
27722;SDS011;15123;-37.794;175.246;2023-01-30T09:15:00;9.95;;;1.40;;
27722;SDS011;15123;-37.794;175.246;2023-01-30T09:17:32;9.05;;;1.25;;
27722;SDS011;15123;-37.794;175.246;2023-01-30T09:20:07;9.52;;;1.27;;
27722;SDS011;15123;-37.794;175.246;2023-01-30T09:22:38;7.72;;;1.33;;
27722;SDS011;15123;-37.794;175.246;2023-01-30T09:25:10;6.50;;;1.30;;
27722;SDS011;15123;-37.794;175.246;2023-01-30T09:27:41;8.52;;;1.25;;
27722;SDS011;15123;-37.794;175.246;2023-01-30T09:30:13;8.25;;;1.15;;
27722;SDS011;15123;-37.794;175.246;2023-01-30T09:32:45;10.40;;;1.30;;
27722;SDS011;15123;-37.794;175.246;2023-01-30T09:37:48;8.23;;;1.27;;
27722;SDS011;15123;-37.794;175.246;2023-01-30T09:40:24;13.30;;;2.00;;
27722;SDS011;15123;-37.794;175.246;2023-01-30T09:43:07;8.50;;;1.38;;
27722;SDS011;15123;-37.794;175.246;2023-01-30T09:51:30;14.48;;;1.80;;
27722;SDS011;15123;-37.794;175.246;2023-01-30T10:00:03;9.35;;;1.40;;
27722;SDS011;15123;-37.794;175.246;2023-01-30T10:17:20;16.55;;;2.13;;
27722;SDS011;15123;-37.794;175.246;2023-01-30T10:28:05;12.73;;;1.60;;
27722;SDS011;15123;-37.794;175.246;2023-01-30T10:30:48;15.05;;;2.13;;
27722;SDS011;15123;-37.794;175.246;2023-01-30T10:33:43;9.25;;;1.60;;
27722;SDS011;15123;-37.794;175.246;2023-01-30T10:36:40;20.38;;;2.58;;
27722;SDS011;15123;-37.794;175.246;2023-01-30T10:42:27;15.85;;;2.33;;
27722;SDS011;15123;-37.794;175.246;2023-01-30T10:45:11;12.85;;;1.90;;
27722;SDS011;15123;-37.794;175.246;2023-01-30T10:50:43;13.45;;;1.90;;
27722;SDS011;15123;-37.794;175.246;2023-01-30T10:53:25;16.40;;;2.03;;
27722;SDS011;15123;-37.794;175.246;2023-01-30T10:56:10;17.15;;;2.22;;
27722;SDS011;15123;-37.794;175.246;2023-01-30T10:58:47;15.15;;;2.25;;
27722;SDS011;15123;-37.794;175.246;2023-01-30T11:01:43;17.45;;;2.50;;
27722;SDS011;15123;-37.794;175.246;2023-01-30T11:06:53;16.17;;;2.40;;
27722;SDS011;15123;-37.794;175.246;2023-01-30T11:09:46;14.93;;;2.15;;
27722;SDS011;15123;-37.794;175.246;2023-01-30T11:12:17;14.05;;;2.20;;
27722;SDS011;15123;-37.794;175.246;2023-01-30T11:15:06;19.92;;;2.90;;
27722;SDS011;15123;-37.794;175.246;2023-01-30T11:17:41;19.35;;;3.05;;
27722;SDS011;15123;-37.794;175.246;2023-01-30T11:20:14;18.75;;;2.65;;
27722;SDS011;15123;-37.794;175.246;2023-01-30T11:23:03;19.80;;;3.10;;
27722;SDS011;15123;-37.794;175.246;2023-01-30T11:25:48;17.33;;;2.42;;
27722;SDS011;15123;-37.794;175.246;2023-01-30T11:28:41;18.20;;;2.97;;
27722;SDS011;15123;-37.794;175.246;2023-01-30T11:31:20;17.30;;;2.35;;
27722;SDS011;15123;-37.794;175.246;2023-01-30T11:34:12;15.38;;;2.22;;
27722;SDS011;15123;-37.794;175.246;2023-01-30T11:36:46;19.67;;;2.53;;
27722;SDS011;15123;-37.794;175.246;2023-01-30T11:39:18;13.57;;;2.13;;
27722;SDS011;15123;-37.794;175.246;2023-01-30T11:44:34;19.40;;;2.33;;
27722;SDS011;15123;-37.794;175.246;2023-01-30T11:47:08;17.85;;;2.10;;
27722;SDS011;15123;-37.794;175.246;2023-01-30T11:49:44;18.02;;;2.30;;
27722;SDS011;15123;-37.794;175.246;2023-01-30T11:52:41;21.30;;;2.53;;
27722;SDS011;15123;-37.794;175.246;2023-01-30T11:55:15;16.75;;;2.08;;
27722;SDS011;15123;-37.794;175.246;2023-01-30T11:57:49;16.67;;;2.40;;
27722;SDS011;15123;-37.794;175.246;2023-01-30T12:00:36;20.23;;;2.58;;
27722;SDS011;15123;-37.794;175.246;2023-01-30T12:03:10;18.63;;;2.35;;
27722;SDS011;15123;-37.794;175.246;2023-01-30T12:05:43;17.50;;;2.63;;
27722;SDS011;15123;-37.794;175.246;2023-01-30T12:11:22;22.38;;;2.58;;
27722;SDS011;15123;-37.794;175.246;2023-01-30T12:14:44;18.42;;;2.72;;
27722;SDS011;15123;-37.794;175.246;2023-01-30T12:24:44;22.58;;;2.65;;
27722;SDS011;15123;-37.794;175.246;2023-01-30T12:30:01;22.95;;;2.60;;
27722;SDS011;15123;-37.794;175.246;2023-01-30T12:32:36;19.30;;;2.42;;
27722;SDS011;15123;-37.794;175.246;2023-01-30T12:35:17;17.13;;;2.47;;
27722;SDS011;15123;-37.794;175.246;2023-01-30T12:46:02;16.55;;;2.50;;
27722;SDS011;15123;-37.794;175.246;2023-01-30T12:49:09;15.68;;;2.10;;
27722;SDS011;15123;-37.794;175.246;2023-01-30T12:54:48;19.60;;;2.40;;
27722;SDS011;15123;-37.794;175.246;2023-01-30T13:06:00;17.60;;;2.20;;
27722;SDS011;15123;-37.794;175.246;2023-01-30T13:08:58;16.50;;;1.95;;
27722;SDS011;15123;-37.794;175.246;2023-01-30T13:14:35;13.20;;;1.90;;
27722;SDS011;15123;-37.794;175.246;2023-01-30T13:23:47;17.52;;;1.85;;
27722;SDS011;15123;-37.794;175.246;2023-01-30T13:26:31;11.63;;;1.67;;
27722;SDS011;15123;-37.794;175.246;2023-01-30T13:29:08;13.15;;;2.03;;
27722;SDS011;15123;-37.794;175.246;2023-01-30T13:31:56;10.15;;;1.60;;
27722;SDS011;15123;-37.794;175.246;2023-01-30T13:34:48;13.65;;;1.50;;
27722;SDS011;15123;-37.794;175.246;2023-01-30T13:37:19;7.65;;;1.15;;
27722;SDS011;15123;-37.794;175.246;2023-01-30T13:39:55;9.55;;;1.67;;
27722;SDS011;15123;-37.794;175.246;2023-01-30T13:42:41;11.05;;;1.45;;
27722;SDS011;15123;-37.794;175.246;2023-01-30T13:45:27;6.90;;;1.30;;
27722;SDS011;15123;-37.794;175.246;2023-01-30T13:53:46;9.55;;;1.30;;
27722;SDS011;15123;-37.794;175.246;2023-01-30T13:59:16;11.35;;;1.30;;
27722;SDS011;15123;-37.794;175.246;2023-01-30T14:02:07;10.05;;;1.10;;
27722;SDS011;15123;-37.794;175.246;2023-01-30T14:04:53;7.55;;;1.10;;
27722;SDS011;15123;-37.794;175.246;2023-01-30T14:07:58;6.38;;;0.85;;
27722;SDS011;15123;-37.794;175.246;2023-01-30T14:10:22;9.93;;;1.17;;
27722;SDS011;15123;-37.794;175.246;2023-01-30T14:13:02;5.97;;;1.23;;
27722;SDS011;15123;-37.794;175.246;2023-01-30T14:15:34;4.25;;;0.70;;
27722;SDS011;15123;-37.794;175.246;2023-01-30T14:18:17;8.88;;;1.13;;
27722;SDS011;15123;-37.794;175.246;2023-01-30T14:20:52;7.80;;;1.15;;
27722;SDS011;15123;-37.794;175.246;2023-01-30T14:23:55;7.45;;;1.30;;
27722;SDS011;15123;-37.794;175.246;2023-01-30T14:34:43;9.43;;;1.17;;
27722;SDS011;15123;-37.794;175.246;2023-01-30T14:48:40;11.98;;;1.50;;
27722;SDS011;15123;-37.794;175.246;2023-01-30T14:53:54;14.50;;;1.58;;
27722;SDS011;15123;-37.794;175.246;2023-01-30T14:56:37;11.25;;;1.48;;
27722;SDS011;15123;-37.794;175.246;2023-01-30T15:04:46;10.77;;;1.30;;
27722;SDS011;15123;-37.794;175.246;2023-01-30T15:07:38;11.75;;;1.70;;
27722;SDS011;15123;-37.794;175.246;2023-01-30T15:15:50;10.13;;;1.42;;
27722;SDS011;15123;-37.794;175.246;2023-01-30T15:21:38;16.13;;;1.75;;
27722;SDS011;15123;-37.794;175.246;2023-01-30T15:32:45;11.57;;;1.88;;
27722;SDS011;15123;-37.794;175.246;2023-01-30T15:37:52;11.55;;;1.65;;
27722;SDS011;15123;-37.794;175.246;2023-01-30T15:40:26;13.80;;;1.70;;
27722;SDS011;15123;-37.794;175.246;2023-01-30T15:45:46;13.05;;;1.67;;
27722;SDS011;15123;-37.794;175.246;2023-01-30T15:48:44;13.90;;;2.30;;
27722;SDS011;15123;-37.794;175.246;2023-01-30T15:51:26;13.55;;;1.95;;
27722;SDS011;15123;-37.794;175.246;2023-01-30T15:53:58;14.13;;;1.83;;
27722;SDS011;15123;-37.794;175.246;2023-01-30T15:56:32;11.48;;;2.00;;
27722;SDS011;15123;-37.794;175.246;2023-01-30T15:59:03;13.65;;;1.60;;
27722;SDS011;15123;-37.794;175.246;2023-01-30T16:01:36;15.50;;;1.63;;
27722;SDS011;15123;-37.794;175.246;2023-01-30T16:04:23;13.38;;;1.70;;
27722;SDS011;15123;-37.794;175.246;2023-01-30T16:06:57;11.48;;;1.77;;
27722;SDS011;15123;-37.794;175.246;2023-01-30T16:09:28;10.85;;;1.75;;
27722;SDS011;15123;-37.794;175.246;2023-01-30T16:11:59;12.52;;;1.80;;
27722;SDS011;15123;-37.794;175.246;2023-01-30T16:14:31;14.18;;;1.88;;
27722;SDS011;15123;-37.794;175.246;2023-01-30T16:17:04;15.43;;;2.03;;
27722;SDS011;15123;-37.794;175.246;2023-01-30T16:19:36;14.90;;;1.90;;
27722;SDS011;15123;-37.794;175.246;2023-01-30T16:22:14;13.88;;;1.60;;
27722;SDS011;15123;-37.794;175.246;2023-01-30T16:24:51;13.80;;;2.00;;
27722;SDS011;15123;-37.794;175.246;2023-01-30T16:30:03;14.68;;;1.88;;
27722;SDS011;15123;-37.794;175.246;2023-01-30T16:32:37;13.85;;;1.80;;
27722;SDS011;15123;-37.794;175.246;2023-01-30T16:37:54;16.10;;;2.35;;
27722;SDS011;15123;-37.794;175.246;2023-01-30T16:40:41;14.10;;;1.98;;
27722;SDS011;15123;-37.794;175.246;2023-01-30T16:43:18;15.00;;;2.13;;
27722;SDS011;15123;-37.794;175.246;2023-01-30T16:48:31;18.80;;;1.90;;
27722;SDS011;15123;-37.794;175.246;2023-01-30T16:51:11;19.15;;;2.40;;
27722;SDS011;15123;-37.794;175.246;2023-01-30T16:53:52;14.90;;;1.80;;
27722;SDS011;15123;-37.794;175.246;2023-01-30T16:56:26;14.52;;;2.13;;
27722;SDS011;15123;-37.794;175.246;2023-01-30T16:58:59;16.77;;;2.42;;
27722;SDS011;15123;-37.794;175.246;2023-01-30T17:01:34;15.40;;;1.90;;
27722;SDS011;15123;-37.794;175.246;2023-01-30T17:04:13;15.77;;;1.95;;
27722;SDS011;15123;-37.794;175.246;2023-01-30T17:06:53;12.25;;;1.88;;
27722;SDS011;15123;-37.794;175.246;2023-01-30T17:09:37;17.90;;;2.05;;
27722;SDS011;15123;-37.794;175.246;2023-01-30T17:17:43;15.00;;;2.00;;
27722;SDS011;15123;-37.794;175.246;2023-01-30T17:22:46;14.95;;;1.95;;
27722;SDS011;15123;-37.794;175.246;2023-01-30T17:25:24;17.60;;;2.20;;
27722;SDS011;15123;-37.794;175.246;2023-01-30T17:28:01;17.02;;;2.10;;
27722;SDS011;15123;-37.794;175.246;2023-01-30T17:30:32;14.35;;;2.00;;
27722;SDS011;15123;-37.794;175.246;2023-01-30T17:35:35;17.00;;;2.00;;
27722;SDS011;15123;-37.794;175.246;2023-01-30T17:38:07;14.43;;;2.33;;
27722;SDS011;15123;-37.794;175.246;2023-01-30T17:40:40;14.40;;;2.05;;
27722;SDS011;15123;-37.794;175.246;2023-01-30T17:43:11;13.10;;;2.10;;
27722;SDS011;15123;-37.794;175.246;2023-01-30T17:45:43;12.18;;;2.10;;
27722;SDS011;15123;-37.794;175.246;2023-01-30T17:48:14;12.88;;;2.00;;
27722;SDS011;15123;-37.794;175.246;2023-01-30T17:50:45;15.52;;;2.30;;
27722;SDS011;15123;-37.794;175.246;2023-01-30T17:53:23;15.25;;;2.40;;
27722;SDS011;15123;-37.794;175.246;2023-01-30T17:55:55;16.50;;;2.30;;
27722;SDS011;15123;-37.794;175.246;2023-01-30T17:58:26;16.80;;;2.22;;
27722;SDS011;15123;-37.794;175.246;2023-01-30T18:00:59;14.30;;;2.10;;
27722;SDS011;15123;-37.794;175.246;2023-01-30T18:03:30;20.05;;;2.28;;
27722;SDS011;15123;-37.794;175.246;2023-01-30T18:06:01;19.73;;;2.97;;
27722;SDS011;15123;-37.794;175.246;2023-01-30T18:08:33;18.55;;;2.55;;
27722;SDS011;15123;-37.794;175.246;2023-01-30T18:11:05;17.85;;;2.42;;
27722;SDS011;15123;-37.794;175.246;2023-01-30T18:13:44;16.00;;;2.55;;
27722;SDS011;15123;-37.794;175.246;2023-01-30T18:16:20;18.08;;;2.50;;
27722;SDS011;15123;-37.794;175.246;2023-01-30T18:18:53;17.30;;;2.55;;
27722;SDS011;15123;-37.794;175.246;2023-01-30T18:21:25;21.88;;;2.63;;
27722;SDS011;15123;-37.794;175.246;2023-01-30T18:23:56;20.17;;;2.88;;